sensor_id;sensor_type;location;lat;lon;timestamp;temperature;humidity
36654;DHT22;22650;49.350;20.898;2023-09-07T00:00:34;12.00;99.90
36654;DHT22;22650;49.350;20.898;2023-09-07T00:03:13;12.10;99.90
36654;DHT22;22650;49.350;20.898;2023-09-07T00:05:52;12.10;99.90
36654;DHT22;22650;49.350;20.898;2023-09-07T00:08:37;12.10;99.90
36654;DHT22;22650;49.350;20.898;2023-09-07T00:11:26;12.10;99.90
36654;DHT22;22650;49.350;20.898;2023-09-07T00:15:04;12.10;99.90
36654;DHT22;22650;49.350;20.898;2023-09-07T00:25:39;12.20;99.90
36654;DHT22;22650;49.350;20.898;2023-09-07T00:28:54;12.10;99.90
36654;DHT22;22650;49.350;20.898;2023-09-07T00:31:34;12.10;99.90
36654;DHT22;22650;49.350;20.898;2023-09-07T00:34:22;12.10;99.90
36654;DHT22;22650;49.350;20.898;2023-09-07T00:37:01;12.20;99.90
36654;DHT22;22650;49.350;20.898;2023-09-07T00:40:01;12.10;99.90
36654;DHT22;22650;49.350;20.898;2023-09-07T00:42:37;12.10;99.90
36654;DHT22;22650;49.350;20.898;2023-09-07T00:45:13;12.20;99.90
36654;DHT22;22650;49.350;20.898;2023-09-07T00:47:56;12.20;99.90
36654;DHT22;22650;49.350;20.898;2023-09-07T00:50:54;12.20;99.90
36654;DHT22;22650;49.350;20.898;2023-09-07T00:53:40;12.20;99.90
36654;DHT22;22650;49.350;20.898;2023-09-07T00:57:21;12.20;99.90
36654;DHT22;22650;49.350;20.898;2023-09-07T01:00:53;12.20;99.90
36654;DHT22;22650;49.350;20.898;2023-09-07T01:05:01;12.20;99.90
36654;DHT22;22650;49.350;20.898;2023-09-07T01:07:45;12.10;99.90
36654;DHT22;22650;49.350;20.898;2023-09-07T01:11:00;12.10;99.90
36654;DHT22;22650;49.350;20.898;2023-09-07T01:33:16;12.10;99.90
36654;DHT22;22650;49.350;20.898;2023-09-07T01:35:59;12.10;99.90
36654;DHT22;22650;49.350;20.898;2023-09-07T01:38:43;12.00;99.90
36654;DHT22;22650;49.350;20.898;2023-09-07T01:41:27;12.10;99.90
36654;DHT22;22650;49.350;20.898;2023-09-07T01:44:11;12.10;99.90
36654;DHT22;22650;49.350;20.898;2023-09-07T01:46:54;12.00;99.90
36654;DHT22;22650;49.350;20.898;2023-09-07T01:49:31;12.00;99.90
36654;DHT22;22650;49.350;20.898;2023-09-07T01:52:09;12.00;99.90
36654;DHT22;22650;49.350;20.898;2023-09-07T01:54:44;12.00;99.90
36654;DHT22;22650;49.350;20.898;2023-09-07T01:57:23;12.00;99.90
36654;DHT22;22650;49.350;20.898;2023-09-07T02:00:02;12.00;99.90
36654;DHT22;22650;49.350;20.898;2023-09-07T02:02:47;12.00;99.90
36654;DHT22;22650;49.350;20.898;2023-09-07T02:05:24;11.90;99.90
36654;DHT22;22650;49.350;20.898;2023-09-07T02:08:11;11.90;99.90
36654;DHT22;22650;49.350;20.898;2023-09-07T02:10:49;11.90;99.90
36654;DHT22;22650;49.350;20.898;2023-09-07T02:13:29;11.90;99.90
36654;DHT22;22650;49.350;20.898;2023-09-07T02:16:25;11.90;99.90
36654;DHT22;22650;49.350;20.898;2023-09-07T02:19:36;11.90;99.90
36654;DHT22;22650;49.350;20.898;2023-09-07T02:22:29;11.90;99.90
36654;DHT22;22650;49.350;20.898;2023-09-07T02:29:32;11.90;99.90
36654;DHT22;22650;49.350;20.898;2023-09-07T02:57:46;11.60;99.90
36654;DHT22;22650;49.350;20.898;2023-09-07T03:00:53;11.60;99.90
36654;DHT22;22650;49.350;20.898;2023-09-07T03:03:56;11.50;99.90
36654;DHT22;22650;49.350;20.898;2023-09-07T03:07:11;11.50;99.90
36654;DHT22;22650;49.350;20.898;2023-09-07T03:10:28;11.50;99.90
36654;DHT22;22650;49.350;20.898;2023-09-07T03:13:55;11.50;99.90
36654;DHT22;22650;49.350;20.898;2023-09-07T03:16:35;11.50;99.90
36654;DHT22;22650;49.350;20.898;2023-09-07T03:19:13;11.50;99.90
36654;DHT22;22650;49.350;20.898;2023-09-07T03:21:51;11.50;99.90
36654;DHT22;22650;49.350;20.898;2023-09-07T03:24:26;11.50;99.90
36654;DHT22;22650;49.350;20.898;2023-09-07T03:32:18;11.60;99.90
36654;DHT22;22650;49.350;20.898;2023-09-07T03:36:07;11.60;99.90
36654;DHT22;22650;49.350;20.898;2023-09-07T03:38:55;11.50;99.90
36654;DHT22;22650;49.350;20.898;2023-09-07T03:41:34;11.60;99.90
36654;DHT22;22650;49.350;20.898;2023-09-07T03:44:24;11.60;99.90
36654;DHT22;22650;49.350;20.898;2023-09-07T03:47:14;11.60;99.90
36654;DHT22;22650;49.350;20.898;2023-09-07T03:50:14;11.60;99.90
36654;DHT22;22650;49.350;20.898;2023-09-07T04:01:52;11.60;99.90
36654;DHT22;22650;49.350;20.898;2023-09-07T04:05:02;11.60;99.90
36654;DHT22;22650;49.350;20.898;2023-09-07T04:07:50;11.60;99.90
36654;DHT22;22650;49.350;20.898;2023-09-07T04:10:28;11.60;99.90
36654;DHT22;22650;49.350;20.898;2023-09-07T04:13:36;11.60;99.90
36654;DHT22;22650;49.350;20.898;2023-09-07T04:19:40;11.60;99.90
36654;DHT22;22650;49.350;20.898;2023-09-07T04:23:01;11.50;99.90
36654;DHT22;22650;49.350;20.898;2023-09-07T04:25:49;11.50;99.90
36654;DHT22;22650;49.350;20.898;2023-09-07T04:28:38;11.50;99.90
36654;DHT22;22650;49.350;20.898;2023-09-07T04:31:28;11.60;99.90
36654;DHT22;22650;49.350;20.898;2023-09-07T04:34:16;11.60;99.90
36654;DHT22;22650;49.350;20.898;2023-09-07T04:37:07;11.60;99.90
36654;DHT22;22650;49.350;20.898;2023-09-07T05:09:07;11.50;99.90
36654;DHT22;22650;49.350;20.898;2023-09-07T05:11:45;11.40;99.90
36654;DHT22;22650;49.350;20.898;2023-09-07T05:14:19;11.50;99.90
36654;DHT22;22650;49.350;20.898;2023-09-07T05:16:55;11.50;99.90
36654;DHT22;22650;49.350;20.898;2023-09-07T05:19:30;11.50;99.90
36654;DHT22;22650;49.350;20.898;2023-09-07T05:22:04;11.60;99.90
36654;DHT22;22650;49.350;20.898;2023-09-07T05:24:40;11.50;99.90
36654;DHT22;22650;49.350;20.898;2023-09-07T05:27:14;11.60;99.90
36654;DHT22;22650;49.350;20.898;2023-09-07T05:29:48;11.60;99.90
36654;DHT22;22650;49.350;20.898;2023-09-07T05:32:22;11.60;99.90
36654;DHT22;22650;49.350;20.898;2023-09-07T05:34:57;11.60;99.90
36654;DHT22;22650;49.350;20.898;2023-09-07T05:37:33;11.60;99.90
36654;DHT22;22650;49.350;20.898;2023-09-07T05:40:11;11.70;99.90
36654;DHT22;22650;49.350;20.898;2023-09-07T05:42:45;11.70;99.90
36654;DHT22;22650;49.350;20.898;2023-09-07T05:45:25;11.70;99.90
36654;DHT22;22650;49.350;20.898;2023-09-07T05:48:00;11.80;99.90
36654;DHT22;22650;49.350;20.898;2023-09-07T05:50:36;11.80;99.90
36654;DHT22;22650;49.350;20.898;2023-09-07T05:53:18;11.80;99.90
36654;DHT22;22650;49.350;20.898;2023-09-07T05:55:55;11.90;99.90
36654;DHT22;22650;49.350;20.898;2023-09-07T05:58:29;11.90;99.90
36654;DHT22;22650;49.350;20.898;2023-09-07T06:01:04;11.90;99.90
36654;DHT22;22650;49.350;20.898;2023-09-07T06:03:39;11.90;99.90
36654;DHT22;22650;49.350;20.898;2023-09-07T06:06:27;11.90;99.90
36654;DHT22;22650;49.350;20.898;2023-09-07T06:09:09;11.90;99.90
36654;DHT22;22650;49.350;20.898;2023-09-07T06:11:45;12.00;99.90
36654;DHT22;22650;49.350;20.898;2023-09-07T06:14:20;12.00;99.90
36654;DHT22;22650;49.350;20.898;2023-09-07T06:16:58;12.10;99.90
36654;DHT22;22650;49.350;20.898;2023-09-07T06:27:41;12.40;99.90
36654;DHT22;22650;49.350;20.898;2023-09-07T06:30:16;12.50;99.90
36654;DHT22;22650;49.350;20.898;2023-09-07T06:32:49;12.50;99.90
36654;DHT22;22650;49.350;20.898;2023-09-07T06:35:27;12.60;99.90
36654;DHT22;22650;49.350;20.898;2023-09-07T06:38:01;12.70;99.90
36654;DHT22;22650;49.350;20.898;2023-09-07T06:40:35;12.80;99.90
36654;DHT22;22650;49.350;20.898;2023-09-07T06:43:10;12.80;99.90
36654;DHT22;22650;49.350;20.898;2023-09-07T06:45:44;12.80;99.90
36654;DHT22;22650;49.350;20.898;2023-09-07T06:48:19;12.90;99.90
36654;DHT22;22650;49.350;20.898;2023-09-07T06:50:53;12.80;99.90
36654;DHT22;22650;49.350;20.898;2023-09-07T06:53:27;12.90;99.90
36654;DHT22;22650;49.350;20.898;2023-09-07T06:56:21;12.90;99.90
36654;DHT22;22650;49.350;20.898;2023-09-07T06:58:56;13.00;99.90
36654;DHT22;22650;49.350;20.898;2023-09-07T07:01:30;13.00;99.90
36654;DHT22;22650;49.350;20.898;2023-09-07T07:04:04;13.20;99.90
36654;DHT22;22650;49.350;20.898;2023-09-07T07:06:39;13.30;99.90
36654;DHT22;22650;49.350;20.898;2023-09-07T07:09:13;13.40;99.90
36654;DHT22;22650;49.350;20.898;2023-09-07T07:11:47;13.50;99.90
36654;DHT22;22650;49.350;20.898;2023-09-07T07:14:23;13.60;99.90
36654;DHT22;22650;49.350;20.898;2023-09-07T07:16:57;13.70;99.90
36654;DHT22;22650;49.350;20.898;2023-09-07T07:19:31;13.80;99.90
36654;DHT22;22650;49.350;20.898;2023-09-07T07:22:06;13.90;99.90
36654;DHT22;22650;49.350;20.898;2023-09-07T07:24:41;14.00;99.90
36654;DHT22;22650;49.350;20.898;2023-09-07T07:27:15;14.20;99.90
36654;DHT22;22650;49.350;20.898;2023-09-07T07:29:50;14.40;99.90
36654;DHT22;22650;49.350;20.898;2023-09-07T07:32:24;14.50;99.90
36654;DHT22;22650;49.350;20.898;2023-09-07T07:34:58;14.70;99.90
36654;DHT22;22650;49.350;20.898;2023-09-07T07:37:33;14.90;99.90
36654;DHT22;22650;49.350;20.898;2023-09-07T07:40:09;15.10;99.90
36654;DHT22;22650;49.350;20.898;2023-09-07T07:42:43;15.30;99.90
36654;DHT22;22650;49.350;20.898;2023-09-07T07:45:20;15.60;99.90
36654;DHT22;22650;49.350;20.898;2023-09-07T07:47:55;15.80;99.90
36654;DHT22;22650;49.350;20.898;2023-09-07T07:50:29;16.00;99.90
36654;DHT22;22650;49.350;20.898;2023-09-07T07:53:03;16.20;99.90
36654;DHT22;22650;49.350;20.898;2023-09-07T07:55:37;16.50;99.90
36654;DHT22;22650;49.350;20.898;2023-09-07T07:58:14;16.70;99.90
36654;DHT22;22650;49.350;20.898;2023-09-07T08:00:49;16.90;99.90
36654;DHT22;22650;49.350;20.898;2023-09-07T08:03:29;17.20;99.90
36654;DHT22;22650;49.350;20.898;2023-09-07T08:06:03;17.40;99.90
36654;DHT22;22650;49.350;20.898;2023-09-07T08:08:37;17.70;99.90
36654;DHT22;22650;49.350;20.898;2023-09-07T08:11:11;17.90;99.90
36654;DHT22;22650;49.350;20.898;2023-09-07T08:13:46;18.20;99.90
36654;DHT22;22650;49.350;20.898;2023-09-07T08:16:21;18.50;99.90
36654;DHT22;22650;49.350;20.898;2023-09-07T08:18:55;18.70;99.90
36654;DHT22;22650;49.350;20.898;2023-09-07T08:21:30;19.00;99.90
36654;DHT22;22650;49.350;20.898;2023-09-07T08:24:04;19.30;99.90
36654;DHT22;22650;49.350;20.898;2023-09-07T08:26:38;19.60;99.90
36654;DHT22;22650;49.350;20.898;2023-09-07T08:29:12;19.90;99.90
36654;DHT22;22650;49.350;20.898;2023-09-07T08:31:47;20.20;99.90
36654;DHT22;22650;49.350;20.898;2023-09-07T08:34:23;20.50;99.90
36654;DHT22;22650;49.350;20.898;2023-09-07T08:36:58;20.70;99.90
36654;DHT22;22650;49.350;20.898;2023-09-07T08:39:32;21.00;99.90
36654;DHT22;22650;49.350;20.898;2023-09-07T08:42:07;21.40;99.90
36654;DHT22;22650;49.350;20.898;2023-09-07T08:44:42;21.70;99.90
36654;DHT22;22650;49.350;20.898;2023-09-07T08:47:20;22.00;99.90
36654;DHT22;22650;49.350;20.898;2023-09-07T08:49:54;22.30;99.90
36654;DHT22;22650;49.350;20.898;2023-09-07T08:52:29;22.60;99.90
36654;DHT22;22650;49.350;20.898;2023-09-07T08:55:03;22.90;99.90
36654;DHT22;22650;49.350;20.898;2023-09-07T08:57:38;23.20;99.90
36654;DHT22;22650;49.350;20.898;2023-09-07T09:00:13;23.50;99.90
36654;DHT22;22650;49.350;20.898;2023-09-07T09:02:52;23.90;99.90
36654;DHT22;22650;49.350;20.898;2023-09-07T09:05:28;24.20;99.90
36654;DHT22;22650;49.350;20.898;2023-09-07T09:08:04;24.50;99.90
36654;DHT22;22650;49.350;20.898;2023-09-07T09:10:41;24.80;99.90
36654;DHT22;22650;49.350;20.898;2023-09-07T09:13:15;25.10;99.90
36654;DHT22;22650;49.350;20.898;2023-09-07T09:15:48;25.40;99.90
36654;DHT22;22650;49.350;20.898;2023-09-07T09:18:24;25.70;99.90
36654;DHT22;22650;49.350;20.898;2023-09-07T09:20:59;26.00;99.90
36654;DHT22;22650;49.350;20.898;2023-09-07T09:23:33;26.30;99.90
36654;DHT22;22650;49.350;20.898;2023-09-07T09:26:06;26.50;98.20
36654;DHT22;22650;49.350;20.898;2023-09-07T09:28:40;26.80;96.80
36654;DHT22;22650;49.350;20.898;2023-09-07T09:31:14;27.10;95.60
36654;DHT22;22650;49.350;20.898;2023-09-07T09:33:50;27.30;94.50
36654;DHT22;22650;49.350;20.898;2023-09-07T09:36:32;27.50;94.10
36654;DHT22;22650;49.350;20.898;2023-09-07T09:39:06;27.70;90.20
36654;DHT22;22650;49.350;20.898;2023-09-07T09:41:42;27.90;92.20
36654;DHT22;22650;49.350;20.898;2023-09-07T09:44:16;28.10;90.30
36654;DHT22;22650;49.350;20.898;2023-09-07T09:46:51;28.20;89.60
36654;DHT22;22650;49.350;20.898;2023-09-07T09:49:28;28.30;85.20
36654;DHT22;22650;49.350;20.898;2023-09-07T09:52:03;28.60;87.50
36654;DHT22;22650;49.350;20.898;2023-09-07T09:54:38;28.90;84.80
36654;DHT22;22650;49.350;20.898;2023-09-07T09:57:12;29.10;84.00
36654;DHT22;22650;49.350;20.898;2023-09-07T09:59:45;29.30;82.20
36654;DHT22;22650;49.350;20.898;2023-09-07T10:02:21;29.40;81.00
36654;DHT22;22650;49.350;20.898;2023-09-07T10:04:56;29.60;80.00
36654;DHT22;22650;49.350;20.898;2023-09-07T10:07:41;29.70;78.10
36654;DHT22;22650;49.350;20.898;2023-09-07T10:10:15;29.70;78.00
36654;DHT22;22650;49.350;20.898;2023-09-07T10:12:52;29.70;76.80
36654;DHT22;22650;49.350;20.898;2023-09-07T10:15:27;29.70;77.30
36654;DHT22;22650;49.350;20.898;2023-09-07T10:18:10;29.80;77.20
36654;DHT22;22650;49.350;20.898;2023-09-07T10:20:50;30.00;79.60
36654;DHT22;22650;49.350;20.898;2023-09-07T10:23:36;30.20;73.00
36654;DHT22;22650;49.350;20.898;2023-09-07T10:26:12;30.50;74.20
36654;DHT22;22650;49.350;20.898;2023-09-07T10:28:46;30.70;76.10
36654;DHT22;22650;49.350;20.898;2023-09-07T10:31:20;30.80;76.70
36654;DHT22;22650;49.350;20.898;2023-09-07T10:34:15;30.90;72.80
36654;DHT22;22650;49.350;20.898;2023-09-07T10:36:56;31.00;72.20
36654;DHT22;22650;49.350;20.898;2023-09-07T10:39:31;31.10;71.40
36654;DHT22;22650;49.350;20.898;2023-09-07T10:42:05;31.30;72.50
36654;DHT22;22650;49.350;20.898;2023-09-07T10:44:38;31.50;72.50
36654;DHT22;22650;49.350;20.898;2023-09-07T10:47:12;31.70;70.90
36654;DHT22;22650;49.350;20.898;2023-09-07T10:49:46;31.90;68.40
36654;DHT22;22650;49.350;20.898;2023-09-07T10:52:21;31.90;70.60
36654;DHT22;22650;49.350;20.898;2023-09-07T10:54:58;32.00;70.00
36654;DHT22;22650;49.350;20.898;2023-09-07T10:57:31;32.20;69.80
36654;DHT22;22650;49.350;20.898;2023-09-07T11:00:06;32.30;68.80
36654;DHT22;22650;49.350;20.898;2023-09-07T11:02:43;32.50;69.20
36654;DHT22;22650;49.350;20.898;2023-09-07T11:05:17;32.60;70.20
36654;DHT22;22650;49.350;20.898;2023-09-07T11:07:52;32.80;67.70
36654;DHT22;22650;49.350;20.898;2023-09-07T11:10:27;33.00;67.20
36654;DHT22;22650;49.350;20.898;2023-09-07T11:13:05;33.10;67.70
36654;DHT22;22650;49.350;20.898;2023-09-07T11:15:39;33.20;66.70
36654;DHT22;22650;49.350;20.898;2023-09-07T11:18:12;33.30;67.30
36654;DHT22;22650;49.350;20.898;2023-09-07T11:20:46;33.40;67.30
36654;DHT22;22650;49.350;20.898;2023-09-07T11:23:21;33.50;65.60
36654;DHT22;22650;49.350;20.898;2023-09-07T11:25:56;33.60;63.60
36654;DHT22;22650;49.350;20.898;2023-09-07T11:28:31;33.50;66.20
36654;DHT22;22650;49.350;20.898;2023-09-07T11:31:04;33.60;64.00
36654;DHT22;22650;49.350;20.898;2023-09-07T11:33:37;33.70;65.20
36654;DHT22;22650;49.350;20.898;2023-09-07T11:36:11;33.80;63.80
36654;DHT22;22650;49.350;20.898;2023-09-07T11:38:46;33.90;63.20
36654;DHT22;22650;49.350;20.898;2023-09-07T11:41:20;33.90;62.50
36654;DHT22;22650;49.350;20.898;2023-09-07T11:43:53;33.90;64.60
36654;DHT22;22650;49.350;20.898;2023-09-07T11:46:27;33.90;64.70
36654;DHT22;22650;49.350;20.898;2023-09-07T11:49:01;34.00;63.40
36654;DHT22;22650;49.350;20.898;2023-09-07T11:51:35;33.90;61.90
36654;DHT22;22650;49.350;20.898;2023-09-07T11:54:10;33.70;61.20
36654;DHT22;22650;49.350;20.898;2023-09-07T11:56:44;33.60;62.80
36654;DHT22;22650;49.350;20.898;2023-09-07T11:59:18;33.40;62.00
36654;DHT22;22650;49.350;20.898;2023-09-07T12:01:52;33.50;61.20
36654;DHT22;22650;49.350;20.898;2023-09-07T12:04:25;33.40;61.60
36654;DHT22;22650;49.350;20.898;2023-09-07T12:06:59;33.40;62.30
36654;DHT22;22650;49.350;20.898;2023-09-07T12:09:34;33.20;59.90
36654;DHT22;22650;49.350;20.898;2023-09-07T12:12:08;33.00;60.80
36654;DHT22;22650;49.350;20.898;2023-09-07T12:14:43;32.90;62.00
36654;DHT22;22650;49.350;20.898;2023-09-07T12:17:17;33.10;64.20
36654;DHT22;22650;49.350;20.898;2023-09-07T12:19:52;33.20;62.80
36654;DHT22;22650;49.350;20.898;2023-09-07T12:22:26;33.40;63.40
36654;DHT22;22650;49.350;20.898;2023-09-07T12:25:01;33.50;63.00
36654;DHT22;22650;49.350;20.898;2023-09-07T12:27:46;33.70;62.90
36654;DHT22;22650;49.350;20.898;2023-09-07T12:30:23;33.90;61.90
36654;DHT22;22650;49.350;20.898;2023-09-07T12:32:57;34.00;61.90
36654;DHT22;22650;49.350;20.898;2023-09-07T12:35:31;34.00;61.30
36654;DHT22;22650;49.350;20.898;2023-09-07T12:38:05;33.90;61.20
36654;DHT22;22650;49.350;20.898;2023-09-07T12:40:40;33.70;60.90
36654;DHT22;22650;49.350;20.898;2023-09-07T12:43:14;33.60;59.70
36654;DHT22;22650;49.350;20.898;2023-09-07T12:45:48;33.60;61.00
36654;DHT22;22650;49.350;20.898;2023-09-07T12:48:22;33.50;61.40
36654;DHT22;22650;49.350;20.898;2023-09-07T12:50:56;33.70;62.20
36654;DHT22;22650;49.350;20.898;2023-09-07T12:53:30;33.60;60.90
36654;DHT22;22650;49.350;20.898;2023-09-07T12:56:05;33.60;59.80
36654;DHT22;22650;49.350;20.898;2023-09-07T12:58:39;33.40;59.60
36654;DHT22;22650;49.350;20.898;2023-09-07T13:01:13;33.40;60.80
36654;DHT22;22650;49.350;20.898;2023-09-07T13:03:48;33.40;60.90
36654;DHT22;22650;49.350;20.898;2023-09-07T13:06:22;33.00;59.70
36654;DHT22;22650;49.350;20.898;2023-09-07T13:08:56;33.00;60.30
36654;DHT22;22650;49.350;20.898;2023-09-07T13:11:35;32.70;59.90
36654;DHT22;22650;49.350;20.898;2023-09-07T13:14:12;32.60;61.20
36654;DHT22;22650;49.350;20.898;2023-09-07T13:16:46;32.60;62.60
36654;DHT22;22650;49.350;20.898;2023-09-07T13:19:20;32.80;62.40
36654;DHT22;22650;49.350;20.898;2023-09-07T13:21:54;33.00;62.90
36654;DHT22;22650;49.350;20.898;2023-09-07T13:24:29;33.00;62.20
36654;DHT22;22650;49.350;20.898;2023-09-07T13:27:04;33.00;62.50
36654;DHT22;22650;49.350;20.898;2023-09-07T13:29:39;33.00;62.70
36654;DHT22;22650;49.350;20.898;2023-09-07T13:32:13;32.90;62.10
36654;DHT22;22650;49.350;20.898;2023-09-07T13:34:47;32.80;62.80
36654;DHT22;22650;49.350;20.898;2023-09-07T13:37:21;32.80;63.10
36654;DHT22;22650;49.350;20.898;2023-09-07T13:39:55;32.70;63.20
36654;DHT22;22650;49.350;20.898;2023-09-07T13:42:30;32.70;64.50
36654;DHT22;22650;49.350;20.898;2023-09-07T13:45:05;32.60;64.30
36654;DHT22;22650;49.350;20.898;2023-09-07T13:47:39;32.50;64.50
36654;DHT22;22650;49.350;20.898;2023-09-07T13:50:13;32.40;63.70
36654;DHT22;22650;49.350;20.898;2023-09-07T13:52:47;32.20;63.50
36654;DHT22;22650;49.350;20.898;2023-09-07T13:55:21;31.90;64.10
36654;DHT22;22650;49.350;20.898;2023-09-07T13:57:57;31.60;65.60
36654;DHT22;22650;49.350;20.898;2023-09-07T14:00:32;31.30;65.30
36654;DHT22;22650;49.350;20.898;2023-09-07T14:03:05;31.20;66.30
36654;DHT22;22650;49.350;20.898;2023-09-07T14:05:39;31.00;66.30
36654;DHT22;22650;49.350;20.898;2023-09-07T14:08:13;30.70;67.60
36654;DHT22;22650;49.350;20.898;2023-09-07T14:10:46;30.50;68.20
36654;DHT22;22650;49.350;20.898;2023-09-07T14:13:22;30.40;67.60
36654;DHT22;22650;49.350;20.898;2023-09-07T14:15:55;30.40;69.30
36654;DHT22;22650;49.350;20.898;2023-09-07T14:18:32;30.30;68.50
36654;DHT22;22650;49.350;20.898;2023-09-07T14:21:05;30.30;68.60
36654;DHT22;22650;49.350;20.898;2023-09-07T14:23:39;30.20;68.30
36654;DHT22;22650;49.350;20.898;2023-09-07T14:26:14;30.10;67.40
36654;DHT22;22650;49.350;20.898;2023-09-07T14:28:50;29.80;67.40
36654;DHT22;22650;49.350;20.898;2023-09-07T14:31:23;29.70;69.40
36654;DHT22;22650;49.350;20.898;2023-09-07T14:33:58;29.60;68.90
36654;DHT22;22650;49.350;20.898;2023-09-07T14:36:31;29.60;69.30
36654;DHT22;22650;49.350;20.898;2023-09-07T14:39:07;29.50;69.10
36654;DHT22;22650;49.350;20.898;2023-09-07T14:41:41;29.50;69.90
36654;DHT22;22650;49.350;20.898;2023-09-07T14:44:16;29.50;69.60
36654;DHT22;22650;49.350;20.898;2023-09-07T14:46:52;29.40;69.10
36654;DHT22;22650;49.350;20.898;2023-09-07T14:49:26;29.40;69.30
36654;DHT22;22650;49.350;20.898;2023-09-07T14:52:00;29.40;69.40
36654;DHT22;22650;49.350;20.898;2023-09-07T14:54:34;29.40;69.50
36654;DHT22;22650;49.350;20.898;2023-09-07T14:57:08;29.30;69.50
36654;DHT22;22650;49.350;20.898;2023-09-07T14:59:43;29.20;69.20
36654;DHT22;22650;49.350;20.898;2023-09-07T15:02:16;29.00;69.30
36654;DHT22;22650;49.350;20.898;2023-09-07T15:04:51;29.00;69.40
36654;DHT22;22650;49.350;20.898;2023-09-07T15:07:25;28.90;69.80
36654;DHT22;22650;49.350;20.898;2023-09-07T15:09:58;28.70;68.80
36654;DHT22;22650;49.350;20.898;2023-09-07T15:12:32;28.60;69.60
36654;DHT22;22650;49.350;20.898;2023-09-07T15:15:08;28.60;69.90
36654;DHT22;22650;49.350;20.898;2023-09-07T15:17:46;28.50;69.90
36654;DHT22;22650;49.350;20.898;2023-09-07T15:20:21;28.50;69.10
36654;DHT22;22650;49.350;20.898;2023-09-07T15:22:54;28.30;69.30
36654;DHT22;22650;49.350;20.898;2023-09-07T15:25:28;28.30;70.20
36654;DHT22;22650;49.350;20.898;2023-09-07T15:28:02;28.10;70.00
36654;DHT22;22650;49.350;20.898;2023-09-07T15:30:40;28.00;69.50
36654;DHT22;22650;49.350;20.898;2023-09-07T15:33:17;27.80;70.60
36654;DHT22;22650;49.350;20.898;2023-09-07T15:35:51;27.70;70.80
36654;DHT22;22650;49.350;20.898;2023-09-07T15:38:25;27.70;70.70
36654;DHT22;22650;49.350;20.898;2023-09-07T15:40:59;27.50;70.60
36654;DHT22;22650;49.350;20.898;2023-09-07T15:43:37;27.30;72.10
36654;DHT22;22650;49.350;20.898;2023-09-07T15:46:12;27.00;70.90
36654;DHT22;22650;49.350;20.898;2023-09-07T15:48:46;26.90;71.70
36654;DHT22;22650;49.350;20.898;2023-09-07T15:51:20;26.70;71.40
36654;DHT22;22650;49.350;20.898;2023-09-07T15:53:53;26.60;71.60
36654;DHT22;22650;49.350;20.898;2023-09-07T15:56:27;26.40;71.10
36654;DHT22;22650;49.350;20.898;2023-09-07T15:59:04;26.30;72.20
36654;DHT22;22650;49.350;20.898;2023-09-07T16:01:47;26.10;72.90
36654;DHT22;22650;49.350;20.898;2023-09-07T16:04:21;26.10;73.20
36654;DHT22;22650;49.350;20.898;2023-09-07T16:06:55;26.00;74.10
36654;DHT22;22650;49.350;20.898;2023-09-07T16:09:29;25.90;75.50
36654;DHT22;22650;49.350;20.898;2023-09-07T16:12:04;25.80;76.80
36654;DHT22;22650;49.350;20.898;2023-09-07T16:14:38;25.70;76.40
36654;DHT22;22650;49.350;20.898;2023-09-07T16:17:14;25.60;77.20
36654;DHT22;22650;49.350;20.898;2023-09-07T16:19:48;25.40;77.50
36654;DHT22;22650;49.350;20.898;2023-09-07T16:22:22;25.30;77.90
36654;DHT22;22650;49.350;20.898;2023-09-07T16:24:55;25.20;78.50
36654;DHT22;22650;49.350;20.898;2023-09-07T16:27:31;25.10;79.20
36654;DHT22;22650;49.350;20.898;2023-09-07T16:30:10;24.90;80.40
36654;DHT22;22650;49.350;20.898;2023-09-07T16:32:45;24.80;81.70
36654;DHT22;22650;49.350;20.898;2023-09-07T16:35:19;24.70;82.60
36654;DHT22;22650;49.350;20.898;2023-09-07T16:37:53;24.50;83.00
36654;DHT22;22650;49.350;20.898;2023-09-07T16:40:28;24.40;84.00
36654;DHT22;22650;49.350;20.898;2023-09-07T16:43:01;24.20;84.70
36654;DHT22;22650;49.350;20.898;2023-09-07T16:45:35;24.00;85.80
36654;DHT22;22650;49.350;20.898;2023-09-07T16:48:10;23.90;86.80
36654;DHT22;22650;49.350;20.898;2023-09-07T16:50:45;23.70;88.00
36654;DHT22;22650;49.350;20.898;2023-09-07T16:53:19;23.50;89.00
36654;DHT22;22650;49.350;20.898;2023-09-07T16:55:56;23.30;90.50
36654;DHT22;22650;49.350;20.898;2023-09-07T16:58:30;23.20;91.30
36654;DHT22;22650;49.350;20.898;2023-09-07T17:01:06;23.00;92.00
36654;DHT22;22650;49.350;20.898;2023-09-07T17:03:42;22.80;92.90
36654;DHT22;22650;49.350;20.898;2023-09-07T17:06:16;22.60;94.00
36654;DHT22;22650;49.350;20.898;2023-09-07T17:08:50;22.40;95.20
36654;DHT22;22650;49.350;20.898;2023-09-07T17:11:23;22.20;96.70
36654;DHT22;22650;49.350;20.898;2023-09-07T17:13:57;22.10;98.30
36654;DHT22;22650;49.350;20.898;2023-09-07T17:16:33;21.90;99.90
36654;DHT22;22650;49.350;20.898;2023-09-07T17:19:08;21.70;99.90
36654;DHT22;22650;49.350;20.898;2023-09-07T17:21:42;21.50;99.90
36654;DHT22;22650;49.350;20.898;2023-09-07T17:24:16;21.40;99.90
36654;DHT22;22650;49.350;20.898;2023-09-07T17:26:49;21.20;99.90
36654;DHT22;22650;49.350;20.898;2023-09-07T17:29:23;21.10;99.90
36654;DHT22;22650;49.350;20.898;2023-09-07T17:31:57;20.90;99.90
36654;DHT22;22650;49.350;20.898;2023-09-07T17:34:33;20.70;99.90
36654;DHT22;22650;49.350;20.898;2023-09-07T17:37:08;20.60;99.90
36654;DHT22;22650;49.350;20.898;2023-09-07T17:39:42;20.50;99.90
36654;DHT22;22650;49.350;20.898;2023-09-07T17:42:16;20.20;99.90
36654;DHT22;22650;49.350;20.898;2023-09-07T17:44:50;20.10;99.90
36654;DHT22;22650;49.350;20.898;2023-09-07T17:47:24;19.90;99.90
36654;DHT22;22650;49.350;20.898;2023-09-07T17:49:59;19.70;99.90
36654;DHT22;22650;49.350;20.898;2023-09-07T17:52:33;19.60;99.90
36654;DHT22;22650;49.350;20.898;2023-09-07T17:55:08;19.40;99.90
36654;DHT22;22650;49.350;20.898;2023-09-07T17:57:41;19.30;99.90
36654;DHT22;22650;49.350;20.898;2023-09-07T18:00:15;19.10;99.90
36654;DHT22;22650;49.350;20.898;2023-09-07T18:02:49;19.10;99.90
36654;DHT22;22650;49.350;20.898;2023-09-07T18:05:32;18.90;99.90
36654;DHT22;22650;49.350;20.898;2023-09-07T18:08:06;18.70;99.90
36654;DHT22;22650;49.350;20.898;2023-09-07T18:10:40;18.60;99.90
36654;DHT22;22650;49.350;20.898;2023-09-07T18:13:14;18.50;99.90
36654;DHT22;22650;49.350;20.898;2023-09-07T18:15:47;18.40;99.90